createdAt,value
2023-02-13T00:00:34.374Z,19.00
2023-02-13T00:03:01.187Z,17.20
2023-02-13T00:05:28.070Z,15.68
2023-02-13T00:07:54.784Z,15.93
2023-02-13T00:10:21.507Z,14.82
2023-02-13T00:12:48.265Z,15.35
2023-02-13T00:15:15.061Z,14.93
2023-02-13T00:17:41.798Z,16.15
2023-02-13T00:20:11.022Z,15.95
2023-02-13T00:22:38.658Z,16.88
2023-02-13T00:25:06.894Z,15.70
2023-02-13T00:27:34.082Z,16.30
2023-02-13T00:30:00.875Z,17.17
2023-02-13T00:32:27.613Z,16.10
2023-02-13T00:34:54.339Z,15.40
2023-02-13T00:37:21.391Z,16.42
2023-02-13T00:39:48.143Z,16.45
2023-02-13T00:42:14.903Z,18.25
2023-02-13T00:44:41.710Z,16.73
2023-02-13T00:47:08.521Z,13.98
2023-02-13T00:49:35.290Z,13.45
2023-02-13T00:52:02.069Z,14.57
2023-02-13T00:54:28.837Z,13.15
2023-02-13T00:56:55.563Z,13.25
2023-02-13T00:59:22.292Z,13.80
2023-02-13T01:01:49.105Z,15.35
2023-02-13T01:04:15.934Z,13.85
2023-02-13T01:06:42.679Z,14.02
2023-02-13T01:09:09.471Z,15.32
2023-02-13T01:11:36.258Z,15.10
2023-02-13T01:14:03.076Z,13.50
2023-02-13T01:16:29.824Z,14.43
2023-02-13T01:18:56.590Z,14.32
2023-02-13T01:21:24.442Z,14.88
2023-02-13T01:23:51.753Z,14.45
2023-02-13T01:26:25.047Z,14.55
2023-02-13T01:28:55.455Z,14.10
2023-02-13T01:31:22.529Z,14.90
2023-02-13T01:33:49.482Z,13.55
2023-02-13T01:36:16.236Z,14.93
2023-02-13T01:38:43.368Z,14.23
2023-02-13T01:41:11.175Z,16.05
2023-02-13T01:43:56.495Z,16.20
2023-02-13T01:46:31.680Z,15.02
2023-02-13T01:49:04.960Z,14.82
2023-02-13T01:51:35.139Z,15.88
2023-02-13T01:54:07.658Z,15.90
2023-02-13T01:56:39.037Z,14.52
2023-02-13T01:59:09.883Z,15.85
2023-02-13T02:01:37.295Z,14.15
2023-02-13T02:04:17.849Z,15.13
2023-02-13T02:06:48.148Z,14.27
2023-02-13T02:09:19.122Z,15.32
2023-02-13T02:12:14.931Z,16.48
2023-02-13T02:14:43.219Z,13.75
2023-02-13T02:17:10.955Z,13.98
2023-02-13T02:19:54.246Z,14.02
2023-02-13T02:22:42.954Z,15.23
2023-02-13T02:25:34.884Z,14.50
2023-02-13T02:28:29.619Z,14.50
2023-02-13T02:31:09.000Z,14.50
2023-02-13T02:34:05.797Z,14.25
2023-02-13T02:36:51.090Z,13.93
2023-02-13T02:39:43.909Z,14.90
2023-02-13T02:42:19.173Z,14.57
2023-02-13T02:44:51.968Z,13.65
2023-02-13T02:47:40.480Z,15.30
2023-02-13T02:50:41.923Z,15.38
2023-02-13T02:53:30.608Z,15.63
2023-02-13T02:56:18.436Z,16.02
2023-02-13T02:59:12.543Z,15.63
2023-02-13T03:01:59.232Z,15.50
2023-02-13T03:04:59.389Z,15.10
2023-02-13T03:07:27.336Z,14.43
2023-02-13T03:10:16.913Z,15.65
2023-02-13T03:13:13.317Z,13.93
2023-02-13T03:16:02.262Z,14.98
2023-02-13T03:18:51.517Z,13.98
2023-02-13T03:21:49.383Z,13.77
2023-02-13T03:24:31.189Z,14.40
2023-02-13T03:27:44.889Z,13.48
2023-02-13T03:30:34.351Z,13.23
2023-02-13T03:33:09.338Z,17.10
2023-02-13T03:36:21.087Z,14.05
2023-02-13T03:38:52.702Z,13.45
2023-02-13T03:41:29.182Z,14.32
2023-02-13T03:44:20.221Z,15.85
2023-02-13T03:46:49.884Z,14.10
2023-02-13T03:49:52.100Z,14.07
2023-02-13T03:52:33.382Z,14.60
2023-02-13T03:55:32.664Z,15.77
2023-02-13T03:58:24.008Z,13.88
2023-02-13T04:00:55.632Z,15.10
2023-02-13T04:03:38.039Z,16.10
2023-02-13T04:06:14.655Z,13.55
2023-02-13T04:08:41.930Z,13.50
2023-02-13T04:11:17.995Z,12.60
2023-02-13T04:13:56.889Z,14.07
2023-02-13T04:16:42.750Z,14.98
2023-02-13T04:19:11.197Z,16.33
2023-02-13T04:21:40.355Z,16.73
2023-02-13T04:24:08.004Z,16.65
2023-02-13T04:26:41.491Z,16.42
2023-02-13T04:29:08.501Z,16.13
2023-02-13T04:31:35.686Z,15.00
2023-02-13T04:34:02.807Z,14.07
2023-02-13T04:36:29.699Z,15.38
2023-02-13T04:38:56.506Z,15.55
2023-02-13T04:41:23.449Z,13.85
2023-02-13T04:43:52.465Z,14.52
2023-02-13T04:46:19.819Z,17.27
2023-02-13T04:48:46.637Z,16.10
2023-02-13T04:51:13.459Z,15.48
2023-02-13T04:53:40.239Z,15.77
2023-02-13T04:56:07.109Z,15.65
2023-02-13T04:58:33.873Z,16.42
2023-02-13T05:01:00.671Z,16.70
2023-02-13T05:03:27.718Z,15.57
2023-02-13T05:05:54.496Z,16.48
2023-02-13T05:08:21.266Z,15.85
2023-02-13T05:10:48.667Z,16.20
2023-02-13T05:13:16.687Z,16.73
2023-02-13T05:15:43.470Z,18.45
2023-02-13T05:18:10.273Z,17.23
2023-02-13T05:20:37.087Z,18.52
2023-02-13T05:23:22.552Z,18.00
2023-02-13T05:25:49.673Z,17.38
2023-02-13T05:28:35.398Z,16.42
2023-02-13T05:31:02.593Z,18.20
2023-02-13T05:33:29.705Z,16.58
2023-02-13T05:35:56.463Z,16.85
2023-02-13T05:38:23.253Z,16.92
2023-02-13T05:40:49.997Z,18.15
2023-02-13T05:43:16.800Z,15.77
2023-02-13T05:45:43.530Z,16.40
2023-02-13T05:48:10.282Z,17.60
2023-02-13T05:50:37.143Z,17.20
2023-02-13T05:53:03.989Z,16.88
2023-02-13T05:55:30.731Z,17.05
2023-02-13T05:57:58.318Z,18.38
2023-02-13T06:00:25.572Z,17.02
2023-02-13T06:02:52.338Z,17.17
2023-02-13T06:05:19.103Z,18.17
2023-02-13T06:07:45.802Z,19.65
2023-02-13T06:10:12.574Z,19.13
2023-02-13T06:12:39.347Z,18.73
2023-02-13T06:15:06.957Z,19.60
2023-02-13T06:17:33.676Z,18.38
2023-02-13T06:20:00.413Z,20.20
2023-02-13T06:22:27.172Z,19.40
2023-02-13T06:24:53.898Z,20.13
2023-02-13T06:27:20.635Z,21.60
2023-02-13T06:29:47.834Z,18.17
2023-02-13T06:32:14.564Z,21.05
2023-02-13T06:34:41.310Z,17.52
2023-02-13T06:37:08.171Z,19.77
2023-02-13T06:39:35.091Z,16.83
2023-02-13T06:42:01.824Z,19.63
2023-02-13T06:44:28.649Z,21.20
2023-02-13T06:46:55.522Z,19.83
2023-02-13T06:49:22.331Z,20.02
2023-02-13T06:51:49.130Z,18.55
2023-02-13T06:54:15.968Z,17.85
2023-02-13T06:56:42.730Z,17.80
2023-02-13T06:59:09.476Z,19.35
2023-02-13T07:01:36.203Z,19.35
2023-02-13T07:04:03.550Z,18.92
2023-02-13T07:06:30.375Z,18.77
2023-02-13T07:08:57.224Z,20.05
2023-02-13T07:11:25.229Z,20.10
2023-02-13T07:13:52.322Z,19.63
2023-02-13T07:16:19.346Z,17.15
2023-02-13T07:18:46.311Z,17.33
2023-02-13T07:21:13.167Z,17.63
2023-02-13T07:23:40.009Z,19.50
2023-02-13T07:26:06.878Z,18.70
2023-02-13T07:28:33.696Z,16.35
2023-02-13T07:31:04.902Z,17.10
2023-02-13T07:33:33.179Z,16.97
2023-02-13T07:36:00.273Z,17.67
2023-02-13T07:38:27.164Z,16.63
2023-02-13T07:40:53.944Z,18.10
2023-02-13T07:43:21.115Z,17.75
2023-02-13T07:45:47.947Z,19.05
2023-02-13T07:48:14.761Z,18.42
2023-02-13T07:50:41.468Z,16.67
2023-02-13T07:53:09.423Z,17.13
2023-02-13T07:55:37.013Z,17.35
2023-02-13T07:58:03.784Z,16.55
2023-02-13T08:00:30.538Z,19.27
2023-02-13T08:03:01.230Z,17.98
2023-02-13T08:05:29.175Z,17.20
2023-02-13T08:07:55.915Z,15.90
2023-02-13T08:10:41.441Z,15.98
2023-02-13T08:13:10.656Z,17.60
2023-02-13T08:15:37.488Z,14.98
2023-02-13T08:18:04.356Z,15.88
2023-02-13T08:20:31.417Z,17.40
2023-02-13T08:23:09.730Z,18.13
2023-02-13T08:25:38.510Z,17.60
2023-02-13T08:28:05.504Z,17.60
2023-02-13T08:30:32.291Z,17.25
2023-02-13T08:32:59.041Z,16.38
2023-02-13T08:35:29.602Z,17.58
2023-02-13T08:37:56.748Z,15.32
2023-02-13T08:40:25.413Z,15.50
2023-02-13T08:42:52.901Z,14.43
2023-02-13T08:45:19.715Z,16.52
2023-02-13T08:47:46.472Z,14.80
2023-02-13T08:50:16.255Z,15.93
2023-02-13T08:52:42.982Z,15.20
2023-02-13T08:55:09.789Z,15.32
2023-02-13T08:57:36.516Z,16.52
2023-02-13T09:00:03.875Z,16.00
2023-02-13T09:02:30.647Z,15.38
2023-02-13T09:04:57.520Z,14.35
2023-02-13T09:07:24.424Z,15.25
2023-02-13T09:09:51.306Z,14.70
2023-02-13T09:12:18.077Z,14.50
2023-02-13T09:14:44.907Z,14.93
2023-02-13T09:17:11.649Z,16.90
2023-02-13T09:19:38.471Z,15.50
2023-02-13T09:22:05.200Z,15.32
2023-02-13T09:24:31.946Z,14.10
2023-02-13T09:26:58.746Z,16.38
2023-02-13T09:29:25.645Z,15.45
2023-02-13T09:31:52.946Z,15.60
2023-02-13T09:34:19.878Z,15.45
2023-02-13T09:36:46.647Z,15.65
2023-02-13T09:39:13.376Z,16.23
2023-02-13T09:41:43.880Z,16.30
2023-02-13T09:44:36.121Z,14.88
2023-02-13T09:47:16.056Z,13.73
2023-02-13T09:49:49.552Z,15.00
2023-02-13T09:52:16.805Z,16.52
2023-02-13T09:54:43.578Z,17.55
2023-02-13T09:57:26.691Z,15.55
2023-02-13T10:00:16.141Z,16.90
2023-02-13T10:02:49.835Z,16.05
2023-02-13T10:05:38.816Z,16.15
2023-02-13T10:08:12.903Z,17.08
2023-02-13T10:10:45.644Z,16.20
2023-02-13T10:13:25.596Z,17.17
2023-02-13T10:16:03.312Z,16.63
2023-02-13T10:18:41.273Z,16.00
2023-02-13T10:21:10.122Z,17.08
2023-02-13T10:23:48.636Z,15.48
2023-02-13T10:26:27.231Z,15.95
2023-02-13T10:29:19.040Z,15.85
2023-02-13T10:31:49.687Z,16.10
2023-02-13T10:34:18.019Z,15.93
2023-02-13T10:36:46.915Z,15.60
2023-02-13T10:39:26.230Z,17.52
2023-02-13T10:41:57.982Z,17.70
2023-02-13T10:44:44.940Z,16.58
2023-02-13T10:47:34.588Z,16.25
2023-02-13T10:50:13.751Z,19.35
2023-02-13T10:53:07.598Z,18.70
2023-02-13T10:56:02.317Z,16.15
2023-02-13T10:58:38.257Z,17.02
2023-02-13T11:01:35.754Z,16.83
2023-02-13T11:04:15.176Z,15.70
2023-02-13T11:06:51.027Z,16.92
2023-02-13T11:09:18.127Z,15.73
2023-02-13T11:11:45.023Z,17.85
2023-02-13T11:14:15.088Z,16.35
2023-02-13T11:16:53.935Z,16.48
2023-02-13T11:19:37.489Z,16.27
2023-02-13T11:22:13.082Z,18.92
2023-02-13T11:24:42.348Z,16.08
2023-02-13T11:27:13.837Z,17.08
2023-02-13T11:29:56.832Z,17.13
2023-02-13T11:32:26.920Z,16.67
2023-02-13T11:34:55.614Z,15.23
2023-02-13T11:37:29.071Z,16.38
2023-02-13T11:39:58.634Z,16.45
2023-02-13T11:42:32.691Z,16.00
2023-02-13T11:45:02.758Z,18.52
2023-02-13T11:47:42.307Z,17.80
2023-02-13T11:50:32.557Z,16.02
2023-02-13T11:53:04.525Z,17.95
2023-02-13T11:55:39.906Z,17.95
2023-02-13T11:58:15.383Z,17.75
2023-02-13T12:00:43.072Z,17.65
2023-02-13T12:03:27.200Z,17.73
2023-02-13T12:06:13.940Z,20.08
2023-02-13T12:08:42.849Z,17.98
2023-02-13T12:11:42.398Z,18.55
2023-02-13T12:14:18.315Z,18.40
2023-02-13T12:17:01.311Z,18.05
2023-02-13T12:19:41.817Z,17.35
2023-02-13T12:22:15.097Z,17.00
2023-02-13T12:25:14.725Z,17.85
2023-02-13T12:28:06.717Z,17.02
2023-02-13T12:30:57.988Z,18.60
2023-02-13T12:33:54.359Z,18.50
2023-02-13T12:36:41.351Z,17.45
2023-02-13T12:39:30.991Z,17.70
2023-02-13T12:42:20.954Z,18.58
2023-02-13T12:45:10.865Z,19.15
2023-02-13T12:48:03.523Z,17.20
2023-02-13T12:50:58.693Z,20.33
2023-02-13T12:53:48.516Z,18.13
2023-02-13T12:56:33.729Z,17.83
2023-02-13T12:59:17.539Z,18.67
2023-02-13T13:02:24.505Z,19.75
2023-02-13T13:05:09.965Z,19.23
2023-02-13T13:08:04.158Z,19.15
2023-02-13T13:11:22.348Z,18.30
2023-02-13T13:14:27.386Z,17.42
2023-02-13T13:17:03.982Z,19.58
2023-02-13T13:19:52.704Z,19.40
2023-02-13T13:22:26.040Z,17.17
2023-02-13T13:25:11.453Z,17.65
2023-02-13T13:27:46.492Z,18.23
2023-02-13T13:30:37.469Z,18.63
2023-02-13T13:33:09.883Z,18.92
2023-02-13T13:35:40.382Z,16.67
2023-02-13T13:38:25.709Z,17.95
2023-02-13T13:41:01.732Z,20.15
2023-02-13T13:44:21.119Z,19.77
2023-02-13T13:47:23.503Z,19.42
2023-02-13T13:49:58.590Z,19.42
2023-02-13T13:52:31.402Z,21.90
2023-02-13T13:55:00.590Z,20.55
2023-02-13T13:58:00.353Z,21.33
2023-02-13T14:00:29.940Z,22.15
2023-02-13T14:02:59.383Z,19.60
2023-02-13T14:05:33.797Z,18.60
2023-02-13T14:08:04.217Z,19.52
2023-02-13T14:10:30.931Z,16.90
2023-02-13T14:12:57.870Z,17.05
2023-02-13T14:15:39.745Z,17.48
2023-02-13T14:18:12.614Z,17.52
2023-02-13T14:20:51.487Z,17.20
2023-02-13T14:23:27.032Z,17.75
2023-02-13T14:26:15.598Z,18.40
2023-02-13T14:28:49.083Z,19.15
2023-02-13T14:31:22.347Z,18.60
2023-02-13T14:34:00.769Z,18.08
2023-02-13T14:36:33.718Z,19.33
2023-02-13T14:39:29.688Z,17.20
2023-02-13T14:42:01.252Z,17.02
2023-02-13T14:44:48.597Z,17.67
2023-02-13T14:47:27.783Z,15.68
2023-02-13T14:49:57.001Z,17.98
2023-02-13T14:52:28.329Z,17.13
2023-02-13T14:55:06.960Z,14.63
2023-02-13T14:57:34.394Z,16.60
2023-02-13T15:00:12.689Z,16.70
2023-02-13T15:02:48.013Z,17.42
2023-02-13T15:05:20.161Z,16.88
2023-02-13T15:10:42.664Z,17.55
2023-02-13T15:13:33.266Z,19.00
2023-02-13T15:16:14.206Z,16.45
2023-02-13T15:18:45.256Z,17.85
2023-02-13T15:21:17.556Z,18.35
2023-02-13T15:23:49.324Z,18.15
2023-02-13T15:26:24.091Z,16.73
2023-02-13T15:29:17.422Z,15.63
2023-02-13T15:31:52.507Z,15.65
2023-02-13T15:34:27.147Z,17.35
2023-02-13T15:36:54.800Z,16.92
2023-02-13T15:39:27.318Z,18.05
2023-02-13T15:41:59.930Z,17.52
2023-02-13T15:44:30.867Z,16.17
2023-02-13T15:47:06.397Z,17.20
2023-02-13T15:49:39.384Z,18.38
2023-02-13T15:54:36.071Z,19.27
2023-02-13T15:57:06.566Z,20.48
2023-02-13T15:59:38.939Z,19.17
2023-02-13T16:02:12.690Z,18.98
2023-02-13T16:04:41.616Z,19.02
2023-02-13T16:07:12.266Z,19.67
2023-02-13T16:09:39.187Z,21.13
2023-02-13T16:12:25.413Z,19.48
2023-02-13T16:14:56.450Z,19.67
2023-02-13T16:17:38.492Z,16.60
2023-02-13T16:20:16.916Z,16.40
2023-02-13T16:22:56.179Z,17.55
2023-02-13T16:25:27.874Z,17.05
2023-02-13T16:28:00.612Z,18.15
2023-02-13T16:30:33.150Z,17.73
2023-02-13T16:33:15.495Z,20.00
2023-02-13T16:35:48.653Z,17.48
2023-02-13T16:38:30.450Z,19.08
2023-02-13T16:41:00.351Z,20.83
2023-02-13T16:43:42.084Z,18.83
2023-02-13T16:46:14.614Z,19.35
2023-02-13T16:48:48.255Z,18.45
2023-02-13T16:51:16.790Z,19.45
2023-02-13T16:53:43.747Z,20.52
2023-02-13T16:56:11.933Z,19.80
2023-02-13T16:58:38.793Z,19.05
2023-02-13T17:01:05.893Z,19.17
2023-02-13T17:03:33.193Z,22.38
2023-02-13T17:06:03.573Z,19.42
2023-02-13T17:08:33.421Z,21.45
2023-02-13T17:11:07.012Z,20.15
2023-02-13T17:13:34.728Z,20.67
2023-02-13T17:16:01.599Z,20.38
2023-02-13T17:18:28.451Z,18.58
2023-02-13T17:20:55.442Z,20.92
2023-02-13T17:23:24.846Z,22.05
2023-02-13T17:25:53.737Z,21.90
2023-02-13T17:28:26.504Z,21.48
2023-02-13T17:30:56.776Z,22.00
2023-02-13T17:33:31.750Z,21.83
2023-02-13T17:35:58.537Z,20.73
2023-02-13T17:38:25.477Z,22.65
2023-02-13T17:40:55.025Z,22.25
2023-02-13T17:43:22.181Z,22.10
2023-02-13T17:45:49.782Z,23.40
2023-02-13T17:48:16.896Z,21.33
2023-02-13T17:50:44.048Z,22.23
2023-02-13T17:53:36.660Z,22.13
2023-02-13T17:58:30.238Z,18.95
2023-02-13T18:00:57.426Z,20.25
2023-02-13T18:03:24.599Z,21.92
2023-02-13T18:05:51.536Z,22.27
2023-02-13T18:08:19.411Z,23.15
2023-02-13T18:10:46.235Z,25.95
2023-02-13T18:13:12.987Z,22.83
2023-02-13T18:15:42.494Z,25.33
2023-02-13T18:18:11.953Z,23.17
2023-02-13T18:20:39.274Z,23.95
2023-02-13T18:23:07.090Z,27.05
2023-02-13T18:25:34.542Z,22.60
2023-02-13T18:28:01.525Z,23.67
2023-02-13T18:30:28.763Z,25.58
2023-02-13T18:32:58.876Z,25.17
2023-02-13T18:35:26.001Z,24.42
2023-02-13T18:37:52.802Z,25.60
2023-02-13T18:40:19.770Z,26.25
2023-02-13T18:42:46.673Z,25.80
2023-02-13T18:45:13.755Z,25.45
2023-02-13T18:47:40.531Z,27.02
2023-02-13T18:50:08.552Z,24.23
2023-02-13T18:52:35.682Z,26.20
2023-02-13T18:55:02.877Z,24.48
2023-02-13T18:57:31.730Z,25.45
2023-02-13T18:59:58.466Z,25.77
2023-02-13T19:02:25.335Z,25.55
2023-02-13T19:04:52.156Z,25.90
2023-02-13T19:07:18.936Z,26.42
2023-02-13T19:09:45.759Z,24.55
2023-02-13T19:12:13.684Z,25.20
2023-02-13T19:14:40.654Z,24.88
2023-02-13T19:17:08.562Z,26.85
2023-02-13T19:19:35.403Z,25.85
2023-02-13T19:22:02.350Z,26.70
2023-02-13T19:24:29.303Z,27.92
2023-02-13T19:26:56.136Z,30.17
2023-02-13T19:29:23.094Z,26.20
2023-02-13T19:31:49.980Z,26.27
2023-02-13T19:34:16.759Z,25.45
2023-02-13T19:36:43.590Z,27.52
2023-02-13T19:39:12.384Z,27.60
2023-02-13T19:41:40.802Z,27.85
2023-02-13T19:44:08.863Z,28.83
2023-02-13T19:46:37.094Z,28.65
2023-02-13T19:49:05.381Z,27.63
2023-02-13T19:51:33.898Z,28.70
2023-02-13T19:54:08.744Z,27.92
2023-02-13T19:56:37.089Z,27.27
2023-02-13T19:59:05.512Z,27.45
2023-02-13T20:01:32.697Z,28.98
2023-02-13T20:03:59.619Z,27.35
2023-02-13T20:06:31.257Z,28.08
2023-02-13T20:08:59.924Z,26.50
2023-02-13T20:11:26.794Z,26.05
2023-02-13T20:13:55.648Z,33.45
2023-02-13T20:16:23.544Z,32.53
2023-02-13T20:18:52.260Z,31.52
2023-02-13T20:21:20.832Z,30.90
2023-02-13T20:23:51.498Z,29.70
2023-02-13T20:26:19.254Z,29.55
2023-02-13T20:28:47.264Z,28.58
2023-02-13T20:31:16.775Z,28.27
2023-02-13T20:33:44.707Z,28.65
2023-02-13T20:36:14.242Z,28.70
2023-02-13T20:38:41.712Z,29.65
2023-02-13T20:41:20.996Z,30.85
2023-02-13T20:43:47.962Z,28.42
2023-02-13T20:46:17.996Z,29.88
2023-02-13T20:48:47.003Z,36.08
2023-02-13T20:51:15.594Z,32.03
2023-02-13T20:53:43.800Z,31.13
2023-02-13T20:56:16.429Z,30.98
2023-02-13T20:58:44.788Z,35.90
2023-02-13T21:01:23.913Z,29.83
2023-02-13T21:03:55.755Z,28.63
2023-02-13T21:06:27.936Z,27.77
2023-02-13T21:08:55.487Z,33.38
2023-02-13T21:11:23.234Z,30.48
2023-02-13T21:13:50.485Z,31.15
2023-02-13T21:16:22.948Z,33.38
2023-02-13T21:18:52.158Z,32.45
2023-02-13T21:21:22.755Z,35.45
2023-02-13T21:23:57.129Z,27.88
2023-02-13T21:26:24.668Z,29.05
2023-02-13T21:28:52.012Z,30.77
2023-02-13T21:31:30.342Z,29.80
2023-02-13T21:34:04.924Z,32.67
2023-02-13T21:36:32.866Z,28.63
2023-02-13T21:39:00.270Z,32.75
2023-02-13T21:41:27.588Z,34.13
2023-02-13T21:43:55.002Z,39.00
2023-02-13T21:46:27.424Z,31.40
2023-02-13T21:48:59.768Z,33.25
2023-02-13T21:51:28.895Z,31.90
2023-02-13T21:53:57.358Z,30.02
2023-02-13T21:56:27.045Z,31.85
2023-02-13T21:58:54.324Z,27.63
2023-02-13T22:01:26.864Z,29.33
2023-02-13T22:04:01.013Z,30.98
2023-02-13T22:06:29.515Z,26.92
2023-02-13T22:09:10.379Z,27.40
2023-02-13T22:11:38.292Z,29.50
2023-02-13T22:14:07.658Z,23.38
2023-02-13T22:16:37.144Z,25.88
2023-02-13T22:19:05.975Z,24.27
2023-02-13T22:21:34.781Z,24.75
2023-02-13T22:24:02.142Z,25.85
2023-02-13T22:26:35.240Z,23.98
2023-02-13T22:29:04.887Z,24.70
2023-02-13T22:31:32.201Z,24.23
2023-02-13T22:34:06.774Z,22.77
2023-02-13T22:36:35.323Z,29.25
2023-02-13T22:39:02.289Z,24.73
2023-02-13T22:41:29.313Z,24.08
2023-02-13T22:43:56.776Z,21.90
2023-02-13T22:46:29.817Z,22.90
2023-02-13T22:48:57.474Z,21.23
2023-02-13T22:51:31.110Z,24.92
2023-02-13T22:53:58.994Z,29.00
2023-02-13T22:56:27.225Z,28.58
2023-02-13T22:58:54.433Z,21.83
2023-02-13T23:01:23.328Z,23.95
2023-02-13T23:03:50.400Z,24.55
2023-02-13T23:06:17.492Z,26.40
2023-02-13T23:08:44.992Z,24.02
2023-02-13T23:11:33.135Z,22.30
2023-02-13T23:14:00.384Z,23.75
2023-02-13T23:16:27.737Z,22.00
2023-02-13T23:18:58.162Z,21.30
2023-02-13T23:21:25.710Z,26.65
2023-02-13T23:23:52.780Z,22.92
2023-02-13T23:26:19.952Z,22.83
2023-02-13T23:28:47.035Z,23.20
2023-02-13T23:31:13.982Z,22.25
2023-02-13T23:33:40.956Z,21.70
2023-02-13T23:36:08.209Z,21.00
2023-02-13T23:38:35.019Z,25.08
2023-02-13T23:41:10.958Z,22.77
2023-02-13T23:43:37.989Z,23.50
2023-02-13T23:46:05.741Z,22.52
2023-02-13T23:48:33.723Z,22.27
2023-02-13T23:51:01.034Z,21.08
2023-02-13T23:53:28.097Z,22.65
2023-02-13T23:55:55.110Z,20.80
2023-02-13T23:58:21.933Z,21.52
